sensor_id;sensor_type;location;lat;lon;timestamp;P1;durP1;ratioP1;P2;durP2;ratioP2
39956;SDS011;48483;44.640;7.494;2023-04-24T00:00:46;10.43;;;9.20;;
39956;SDS011;48483;44.640;7.494;2023-04-24T00:03:13;11.07;;;9.88;;
39956;SDS011;48483;44.640;7.494;2023-04-24T00:05:40;10.98;;;9.75;;
39956;SDS011;48483;44.640;7.494;2023-04-24T00:08:07;12.23;;;10.13;;
39956;SDS011;48483;44.640;7.494;2023-04-24T00:10:35;11.32;;;10.05;;
39956;SDS011;48483;44.640;7.494;2023-04-24T00:13:02;11.38;;;9.68;;
39956;SDS011;48483;44.640;7.494;2023-04-24T00:15:28;11.45;;;10.30;;
39956;SDS011;48483;44.640;7.494;2023-04-24T00:17:55;10.52;;;9.43;;
39956;SDS011;48483;44.640;7.494;2023-04-24T00:20:21;10.30;;;9.15;;
39956;SDS011;48483;44.640;7.494;2023-04-24T00:22:48;11.35;;;9.48;;
39956;SDS011;48483;44.640;7.494;2023-04-24T00:25:15;11.43;;;9.73;;
39956;SDS011;48483;44.640;7.494;2023-04-24T00:27:43;12.43;;;10.07;;
39956;SDS011;48483;44.640;7.494;2023-04-24T00:30:10;11.95;;;9.48;;
39956;SDS011;48483;44.640;7.494;2023-04-24T00:32:36;11.13;;;8.57;;
39956;SDS011;48483;44.640;7.494;2023-04-24T00:35:03;11.30;;;9.55;;
39956;SDS011;48483;44.640;7.494;2023-04-24T00:37:31;11.85;;;10.63;;
39956;SDS011;48483;44.640;7.494;2023-04-24T00:39:58;10.68;;;9.23;;
39956;SDS011;48483;44.640;7.494;2023-04-24T00:42:24;10.95;;;9.55;;
39956;SDS011;48483;44.640;7.494;2023-04-24T00:44:53;11.20;;;9.73;;
39956;SDS011;48483;44.640;7.494;2023-04-24T00:47:20;10.63;;;8.73;;
39956;SDS011;48483;44.640;7.494;2023-04-24T00:49:48;10.40;;;9.30;;
39956;SDS011;48483;44.640;7.494;2023-04-24T00:52:14;12.48;;;10.27;;
39956;SDS011;48483;44.640;7.494;2023-04-24T00:54:43;11.82;;;9.88;;
39956;SDS011;48483;44.640;7.494;2023-04-24T00:57:11;10.77;;;9.57;;
39956;SDS011;48483;44.640;7.494;2023-04-24T00:59:39;10.82;;;9.40;;
39956;SDS011;48483;44.640;7.494;2023-04-24T01:02:08;12.15;;;9.18;;
39956;SDS011;48483;44.640;7.494;2023-04-24T01:04:36;12.23;;;10.93;;
39956;SDS011;48483;44.640;7.494;2023-04-24T01:07:04;14.10;;;11.50;;
39956;SDS011;48483;44.640;7.494;2023-04-24T01:09:36;11.52;;;10.02;;
39956;SDS011;48483;44.640;7.494;2023-04-24T01:12:03;13.40;;;9.63;;
39956;SDS011;48483;44.640;7.494;2023-04-24T01:14:31;11.70;;;10.50;;
39956;SDS011;48483;44.640;7.494;2023-04-24T01:16:57;11.73;;;10.05;;
39956;SDS011;48483;44.640;7.494;2023-04-24T01:19:26;12.35;;;9.93;;
39956;SDS011;48483;44.640;7.494;2023-04-24T01:21:53;13.93;;;10.57;;
39956;SDS011;48483;44.640;7.494;2023-04-24T01:24:22;10.88;;;9.63;;
39956;SDS011;48483;44.640;7.494;2023-04-24T01:26:48;11.27;;;8.88;;
39956;SDS011;48483;44.640;7.494;2023-04-24T01:29:15;12.27;;;8.57;;
39956;SDS011;48483;44.640;7.494;2023-04-24T01:31:42;10.75;;;9.65;;
39956;SDS011;48483;44.640;7.494;2023-04-24T01:34:09;10.10;;;9.00;;
39956;SDS011;48483;44.640;7.494;2023-04-24T01:36:36;11.18;;;9.15;;
39956;SDS011;48483;44.640;7.494;2023-04-24T01:39:05;10.60;;;9.45;;
39956;SDS011;48483;44.640;7.494;2023-04-24T01:41:32;9.90;;;8.90;;
39956;SDS011;48483;44.640;7.494;2023-04-24T01:43:59;11.25;;;9.68;;
39956;SDS011;48483;44.640;7.494;2023-04-24T01:46:26;12.55;;;10.10;;
39956;SDS011;48483;44.640;7.494;2023-04-24T01:48:53;13.63;;;10.27;;
39956;SDS011;48483;44.640;7.494;2023-04-24T01:51:20;12.20;;;9.68;;
39956;SDS011;48483;44.640;7.494;2023-04-24T01:53:47;11.77;;;10.35;;
39956;SDS011;48483;44.640;7.494;2023-04-24T01:56:13;11.75;;;10.23;;
39956;SDS011;48483;44.640;7.494;2023-04-24T01:58:42;13.13;;;10.13;;
39956;SDS011;48483;44.640;7.494;2023-04-24T02:01:09;11.85;;;10.15;;
39956;SDS011;48483;44.640;7.494;2023-04-24T02:03:41;11.80;;;9.60;;
39956;SDS011;48483;44.640;7.494;2023-04-24T02:06:08;8.65;;;7.78;;
39956;SDS011;48483;44.640;7.494;2023-04-24T02:08:34;10.68;;;9.48;;
39956;SDS011;48483;44.640;7.494;2023-04-24T02:11:01;10.65;;;9.52;;
39956;SDS011;48483;44.640;7.494;2023-04-24T02:13:28;11.20;;;9.35;;
39956;SDS011;48483;44.640;7.494;2023-04-24T02:15:56;10.52;;;9.02;;
39956;SDS011;48483;44.640;7.494;2023-04-24T02:18:24;11.25;;;9.80;;
39956;SDS011;48483;44.640;7.494;2023-04-24T02:20:50;9.70;;;8.57;;
39956;SDS011;48483;44.640;7.494;2023-04-24T02:23:17;11.77;;;8.77;;
39956;SDS011;48483;44.640;7.494;2023-04-24T02:25:45;10.32;;;9.05;;
39956;SDS011;48483;44.640;7.494;2023-04-24T02:28:11;12.77;;;9.73;;
39956;SDS011;48483;44.640;7.494;2023-04-24T02:30:38;12.07;;;9.07;;
39956;SDS011;48483;44.640;7.494;2023-04-24T02:33:06;11.15;;;9.15;;
39956;SDS011;48483;44.640;7.494;2023-04-24T02:35:33;10.73;;;9.63;;
39956;SDS011;48483;44.640;7.494;2023-04-24T02:37:59;10.55;;;9.43;;
39956;SDS011;48483;44.640;7.494;2023-04-24T02:40:26;13.45;;;8.98;;
39956;SDS011;48483;44.640;7.494;2023-04-24T02:42:52;12.70;;;8.88;;
39956;SDS011;48483;44.640;7.494;2023-04-24T02:45:19;10.23;;;8.68;;
39956;SDS011;48483;44.640;7.494;2023-04-24T02:47:45;11.02;;;9.13;;
39956;SDS011;48483;44.640;7.494;2023-04-24T02:50:13;10.88;;;9.48;;
39956;SDS011;48483;44.640;7.494;2023-04-24T02:52:40;11.68;;;10.48;;
39956;SDS011;48483;44.640;7.494;2023-04-24T02:55:07;11.02;;;9.57;;
39956;SDS011;48483;44.640;7.494;2023-04-24T02:57:34;11.65;;;10.18;;
39956;SDS011;48483;44.640;7.494;2023-04-24T03:00:01;12.00;;;9.45;;
39956;SDS011;48483;44.640;7.494;2023-04-24T03:02:29;12.45;;;9.93;;
39956;SDS011;48483;44.640;7.494;2023-04-24T03:04:56;10.90;;;9.55;;
39956;SDS011;48483;44.640;7.494;2023-04-24T03:07:24;12.38;;;9.45;;
39956;SDS011;48483;44.640;7.494;2023-04-24T03:09:50;11.35;;;9.65;;
39956;SDS011;48483;44.640;7.494;2023-04-24T03:12:17;14.85;;;9.43;;
39956;SDS011;48483;44.640;7.494;2023-04-24T03:14:44;14.32;;;9.82;;
39956;SDS011;48483;44.640;7.494;2023-04-24T03:17:10;13.77;;;9.95;;
39956;SDS011;48483;44.640;7.494;2023-04-24T03:19:37;11.18;;;9.43;;
39956;SDS011;48483;44.640;7.494;2023-04-24T03:22:09;12.95;;;10.48;;
39956;SDS011;48483;44.640;7.494;2023-04-24T03:24:37;13.20;;;9.88;;
39956;SDS011;48483;44.640;7.494;2023-04-24T03:27:04;12.02;;;10.15;;
39956;SDS011;48483;44.640;7.494;2023-04-24T03:30:04;14.45;;;10.52;;
39956;SDS011;48483;44.640;7.494;2023-04-24T03:32:40;15.35;;;9.90;;
39956;SDS011;48483;44.640;7.494;2023-04-24T03:35:09;10.60;;;9.35;;
39956;SDS011;48483;44.640;7.494;2023-04-24T03:37:36;13.45;;;10.30;;
39956;SDS011;48483;44.640;7.494;2023-04-24T03:40:27;11.88;;;10.63;;
39956;SDS011;48483;44.640;7.494;2023-04-24T03:42:56;13.03;;;10.73;;
39956;SDS011;48483;44.640;7.494;2023-04-24T03:45:22;14.13;;;10.82;;
39956;SDS011;48483;44.640;7.494;2023-04-24T03:47:51;11.55;;;10.13;;
39956;SDS011;48483;44.640;7.494;2023-04-24T03:50:17;12.50;;;10.95;;
39956;SDS011;48483;44.640;7.494;2023-04-24T03:52:44;11.35;;;10.15;;
39956;SDS011;48483;44.640;7.494;2023-04-24T03:55:18;15.35;;;9.75;;
39956;SDS011;48483;44.640;7.494;2023-04-24T03:57:48;14.55;;;10.55;;
39956;SDS011;48483;44.640;7.494;2023-04-24T04:00:21;12.10;;;10.90;;
39956;SDS011;48483;44.640;7.494;2023-04-24T04:02:54;12.05;;;10.65;;
39956;SDS011;48483;44.640;7.494;2023-04-24T04:05:21;12.43;;;10.55;;
39956;SDS011;48483;44.640;7.494;2023-04-24T04:07:48;13.15;;;11.13;;
39956;SDS011;48483;44.640;7.494;2023-04-24T04:10:14;14.00;;;11.10;;
39956;SDS011;48483;44.640;7.494;2023-04-24T04:12:43;11.57;;;10.38;;
39956;SDS011;48483;44.640;7.494;2023-04-24T04:15:11;14.48;;;10.55;;
39956;SDS011;48483;44.640;7.494;2023-04-24T04:17:38;11.35;;;9.73;;
39956;SDS011;48483;44.640;7.494;2023-04-24T04:20:06;12.75;;;10.50;;
39956;SDS011;48483;44.640;7.494;2023-04-24T04:22:37;13.25;;;10.30;;
39956;SDS011;48483;44.640;7.494;2023-04-24T04:25:07;16.60;;;11.37;;
39956;SDS011;48483;44.640;7.494;2023-04-24T04:27:34;16.40;;;11.52;;
39956;SDS011;48483;44.640;7.494;2023-04-24T04:30:05;12.85;;;10.82;;
39956;SDS011;48483;44.640;7.494;2023-04-24T04:32:42;11.75;;;10.25;;
39956;SDS011;48483;44.640;7.494;2023-04-24T04:35:09;14.70;;;10.25;;
39956;SDS011;48483;44.640;7.494;2023-04-24T04:37:36;14.82;;;11.25;;
39956;SDS011;48483;44.640;7.494;2023-04-24T04:40:12;13.40;;;9.45;;
39956;SDS011;48483;44.640;7.494;2023-04-24T04:42:48;13.05;;;10.65;;
39956;SDS011;48483;44.640;7.494;2023-04-24T04:45:15;11.90;;;10.60;;
39956;SDS011;48483;44.640;7.494;2023-04-24T04:48:04;12.10;;;10.65;;
39956;SDS011;48483;44.640;7.494;2023-04-24T04:50:34;13.23;;;10.80;;
39956;SDS011;48483;44.640;7.494;2023-04-24T04:53:05;13.55;;;10.48;;
39956;SDS011;48483;44.640;7.494;2023-04-24T04:55:36;12.07;;;10.45;;
39956;SDS011;48483;44.640;7.494;2023-04-24T04:58:10;14.00;;;11.07;;
39956;SDS011;48483;44.640;7.494;2023-04-24T05:00:37;10.73;;;9.57;;
39956;SDS011;48483;44.640;7.494;2023-04-24T05:03:14;17.17;;;11.55;;
39956;SDS011;48483;44.640;7.494;2023-04-24T05:05:41;11.38;;;10.18;;
39956;SDS011;48483;44.640;7.494;2023-04-24T05:08:11;13.63;;;11.05;;
39956;SDS011;48483;44.640;7.494;2023-04-24T05:10:38;12.60;;;11.25;;
39956;SDS011;48483;44.640;7.494;2023-04-24T05:13:05;14.48;;;10.93;;
39956;SDS011;48483;44.640;7.494;2023-04-24T05:15:33;13.07;;;10.88;;
39956;SDS011;48483;44.640;7.494;2023-04-24T05:18:00;12.13;;;10.70;;
39956;SDS011;48483;44.640;7.494;2023-04-24T05:20:29;11.23;;;10.07;;
39956;SDS011;48483;44.640;7.494;2023-04-24T05:22:56;13.50;;;10.77;;
39956;SDS011;48483;44.640;7.494;2023-04-24T05:25:24;13.43;;;11.30;;
39956;SDS011;48483;44.640;7.494;2023-04-24T05:27:57;12.35;;;9.73;;
39956;SDS011;48483;44.640;7.494;2023-04-24T05:30:24;11.88;;;10.00;;
39956;SDS011;48483;44.640;7.494;2023-04-24T05:32:50;13.23;;;10.43;;
39956;SDS011;48483;44.640;7.494;2023-04-24T05:35:17;15.68;;;11.07;;
39956;SDS011;48483;44.640;7.494;2023-04-24T05:37:46;11.50;;;9.63;;
39956;SDS011;48483;44.640;7.494;2023-04-24T05:40:13;12.75;;;9.43;;
39956;SDS011;48483;44.640;7.494;2023-04-24T05:42:40;11.60;;;9.82;;
39956;SDS011;48483;44.640;7.494;2023-04-24T05:45:07;12.82;;;9.82;;
39956;SDS011;48483;44.640;7.494;2023-04-24T05:47:35;14.52;;;8.88;;
39956;SDS011;48483;44.640;7.494;2023-04-24T05:50:01;14.20;;;10.20;;
39956;SDS011;48483;44.640;7.494;2023-04-24T05:52:29;11.98;;;9.15;;
39956;SDS011;48483;44.640;7.494;2023-04-24T05:54:57;10.05;;;8.30;;
39956;SDS011;48483;44.640;7.494;2023-04-24T05:57:27;13.25;;;8.82;;
39956;SDS011;48483;44.640;7.494;2023-04-24T05:59:59;12.40;;;8.80;;
39956;SDS011;48483;44.640;7.494;2023-04-24T06:02:25;10.13;;;7.68;;
39956;SDS011;48483;44.640;7.494;2023-04-24T06:04:53;8.75;;;6.80;;
39956;SDS011;48483;44.640;7.494;2023-04-24T06:07:21;12.38;;;7.60;;
39956;SDS011;48483;44.640;7.494;2023-04-24T06:09:48;8.38;;;6.57;;
39956;SDS011;48483;44.640;7.494;2023-04-24T06:12:17;8.63;;;5.88;;
39956;SDS011;48483;44.640;7.494;2023-04-24T06:14:54;7.78;;;5.40;;
39956;SDS011;48483;44.640;7.494;2023-04-24T06:17:33;8.25;;;5.20;;
39956;SDS011;48483;44.640;7.494;2023-04-24T06:19:59;8.25;;;5.75;;
39956;SDS011;48483;44.640;7.494;2023-04-24T06:22:26;8.45;;;5.00;;
39956;SDS011;48483;44.640;7.494;2023-04-24T06:24:53;7.70;;;5.25;;
39956;SDS011;48483;44.640;7.494;2023-04-24T06:27:20;6.60;;;4.85;;
39956;SDS011;48483;44.640;7.494;2023-04-24T06:29:47;7.57;;;4.53;;
39956;SDS011;48483;44.640;7.494;2023-04-24T06:32:20;8.32;;;4.78;;
39956;SDS011;48483;44.640;7.494;2023-04-24T06:34:47;7.80;;;4.63;;
39956;SDS011;48483;44.640;7.494;2023-04-24T06:37:14;9.32;;;4.95;;
39956;SDS011;48483;44.640;7.494;2023-04-24T06:39:42;10.18;;;5.03;;
39956;SDS011;48483;44.640;7.494;2023-04-24T06:42:08;9.27;;;6.43;;
39956;SDS011;48483;44.640;7.494;2023-04-24T06:44:36;8.05;;;6.20;;
39956;SDS011;48483;44.640;7.494;2023-04-24T06:47:06;8.30;;;5.63;;
39956;SDS011;48483;44.640;7.494;2023-04-24T06:49:34;8.65;;;5.55;;
39956;SDS011;48483;44.640;7.494;2023-04-24T06:52:00;7.63;;;5.28;;
39956;SDS011;48483;44.640;7.494;2023-04-24T06:54:27;8.38;;;5.28;;
39956;SDS011;48483;44.640;7.494;2023-04-24T06:56:54;7.20;;;5.90;;
39956;SDS011;48483;44.640;7.494;2023-04-24T06:59:21;7.30;;;5.18;;
39956;SDS011;48483;44.640;7.494;2023-04-24T07:01:49;7.45;;;5.03;;
39956;SDS011;48483;44.640;7.494;2023-04-24T07:04:16;7.22;;;5.30;;
39956;SDS011;48483;44.640;7.494;2023-04-24T07:06:43;9.55;;;5.80;;
39956;SDS011;48483;44.640;7.494;2023-04-24T07:09:11;7.50;;;5.35;;
39956;SDS011;48483;44.640;7.494;2023-04-24T07:11:39;8.80;;;5.35;;
39956;SDS011;48483;44.640;7.494;2023-04-24T07:14:06;6.13;;;5.07;;
39956;SDS011;48483;44.640;7.494;2023-04-24T07:16:33;8.23;;;5.55;;
39956;SDS011;48483;44.640;7.494;2023-04-24T07:19:00;7.97;;;5.43;;
39956;SDS011;48483;44.640;7.494;2023-04-24T07:21:27;9.05;;;5.50;;
39956;SDS011;48483;44.640;7.494;2023-04-24T07:23:54;6.85;;;4.80;;
39956;SDS011;48483;44.640;7.494;2023-04-24T07:26:20;14.90;;;6.38;;
39956;SDS011;48483;44.640;7.494;2023-04-24T07:28:47;8.30;;;6.05;;
39956;SDS011;48483;44.640;7.494;2023-04-24T07:31:13;6.97;;;6.20;;
39956;SDS011;48483;44.640;7.494;2023-04-24T07:33:40;9.35;;;7.13;;
39956;SDS011;48483;44.640;7.494;2023-04-24T07:36:08;10.48;;;6.40;;
39956;SDS011;48483;44.640;7.494;2023-04-24T07:38:41;7.55;;;6.18;;
39956;SDS011;48483;44.640;7.494;2023-04-24T07:41:08;8.95;;;6.97;;
39956;SDS011;48483;44.640;7.494;2023-04-24T07:43:34;10.18;;;8.15;;
39956;SDS011;48483;44.640;7.494;2023-04-24T07:46:01;9.15;;;7.70;;
39956;SDS011;48483;44.640;7.494;2023-04-24T07:48:27;10.40;;;7.63;;
39956;SDS011;48483;44.640;7.494;2023-04-24T07:50:54;11.38;;;8.20;;
39956;SDS011;48483;44.640;7.494;2023-04-24T07:53:22;10.13;;;7.63;;
39956;SDS011;48483;44.640;7.494;2023-04-24T07:55:48;10.98;;;8.15;;
39956;SDS011;48483;44.640;7.494;2023-04-24T07:58:15;11.23;;;9.07;;
39956;SDS011;48483;44.640;7.494;2023-04-24T08:00:42;11.95;;;9.00;;
39956;SDS011;48483;44.640;7.494;2023-04-24T08:03:08;8.23;;;7.43;;
39956;SDS011;48483;44.640;7.494;2023-04-24T08:05:35;13.45;;;7.38;;
39956;SDS011;48483;44.640;7.494;2023-04-24T08:08:01;13.55;;;7.90;;
39956;SDS011;48483;44.640;7.494;2023-04-24T08:10:29;10.80;;;7.95;;
39956;SDS011;48483;44.640;7.494;2023-04-24T08:12:56;8.73;;;7.50;;
39956;SDS011;48483;44.640;7.494;2023-04-24T08:15:22;11.27;;;7.65;;
39956;SDS011;48483;44.640;7.494;2023-04-24T08:17:49;10.30;;;8.85;;
39956;SDS011;48483;44.640;7.494;2023-04-24T08:20:16;9.85;;;8.80;;
39956;SDS011;48483;44.640;7.494;2023-04-24T08:22:42;10.77;;;8.73;;
39956;SDS011;48483;44.640;7.494;2023-04-24T08:25:09;11.85;;;8.35;;
39956;SDS011;48483;44.640;7.494;2023-04-24T08:27:37;12.13;;;9.93;;
39956;SDS011;48483;44.640;7.494;2023-04-24T08:30:05;10.27;;;9.25;;
39956;SDS011;48483;44.640;7.494;2023-04-24T08:32:32;10.63;;;9.52;;
39956;SDS011;48483;44.640;7.494;2023-04-24T08:34:59;10.20;;;9.07;;
39956;SDS011;48483;44.640;7.494;2023-04-24T08:37:26;11.70;;;9.55;;
39956;SDS011;48483;44.640;7.494;2023-04-24T08:39:53;12.02;;;9.85;;
39956;SDS011;48483;44.640;7.494;2023-04-24T08:42:20;10.57;;;9.13;;
39956;SDS011;48483;44.640;7.494;2023-04-24T08:44:48;11.05;;;8.25;;
39956;SDS011;48483;44.640;7.494;2023-04-24T08:47:16;9.82;;;8.43;;
39956;SDS011;48483;44.640;7.494;2023-04-24T08:49:43;10.90;;;9.68;;
39956;SDS011;48483;44.640;7.494;2023-04-24T08:52:11;10.32;;;9.13;;
39956;SDS011;48483;44.640;7.494;2023-04-24T08:54:39;13.07;;;9.70;;
39956;SDS011;48483;44.640;7.494;2023-04-24T08:57:07;11.10;;;9.90;;
39956;SDS011;48483;44.640;7.494;2023-04-24T08:59:36;13.07;;;9.77;;
39956;SDS011;48483;44.640;7.494;2023-04-24T09:02:05;15.02;;;10.65;;
39956;SDS011;48483;44.640;7.494;2023-04-24T09:04:36;10.85;;;8.85;;
39956;SDS011;48483;44.640;7.494;2023-04-24T09:07:03;13.52;;;11.10;;
39956;SDS011;48483;44.640;7.494;2023-04-24T09:09:32;15.68;;;12.50;;
39956;SDS011;48483;44.640;7.494;2023-04-24T09:11:59;13.68;;;11.38;;
39956;SDS011;48483;44.640;7.494;2023-04-24T09:14:26;11.85;;;10.65;;
39956;SDS011;48483;44.640;7.494;2023-04-24T09:16:54;13.32;;;11.88;;
39956;SDS011;48483;44.640;7.494;2023-04-24T09:19:22;16.83;;;12.85;;
39956;SDS011;48483;44.640;7.494;2023-04-24T09:21:48;14.93;;;13.48;;
39956;SDS011;48483;44.640;7.494;2023-04-24T09:24:16;14.90;;;13.40;;
39956;SDS011;48483;44.640;7.494;2023-04-24T09:26:44;13.82;;;12.40;;
39956;SDS011;48483;44.640;7.494;2023-04-24T09:29:14;15.85;;;14.23;;
39956;SDS011;48483;44.640;7.494;2023-04-24T09:31:41;14.45;;;12.60;;
39956;SDS011;48483;44.640;7.494;2023-04-24T09:34:08;14.95;;;13.05;;
39956;SDS011;48483;44.640;7.494;2023-04-24T09:36:36;14.90;;;12.50;;
39956;SDS011;48483;44.640;7.494;2023-04-24T09:39:04;15.23;;;12.05;;
39956;SDS011;48483;44.640;7.494;2023-04-24T09:41:32;13.27;;;11.95;;
39956;SDS011;48483;44.640;7.494;2023-04-24T09:44:01;15.05;;;11.10;;
39956;SDS011;48483;44.640;7.494;2023-04-24T09:46:37;12.73;;;11.45;;
39956;SDS011;48483;44.640;7.494;2023-04-24T09:49:07;13.13;;;11.73;;
39956;SDS011;48483;44.640;7.494;2023-04-24T09:51:37;14.68;;;13.32;;
39956;SDS011;48483;44.640;7.494;2023-04-24T09:54:04;14.45;;;12.95;;
39956;SDS011;48483;44.640;7.494;2023-04-24T09:56:39;14.77;;;13.27;;
39956;SDS011;48483;44.640;7.494;2023-04-24T09:59:09;15.88;;;14.18;;
39956;SDS011;48483;44.640;7.494;2023-04-24T10:01:36;17.35;;;14.40;;
39956;SDS011;48483;44.640;7.494;2023-04-24T10:04:04;15.65;;;13.30;;
39956;SDS011;48483;44.640;7.494;2023-04-24T10:06:32;17.83;;;14.68;;
39956;SDS011;48483;44.640;7.494;2023-04-24T10:09:01;14.75;;;13.23;;
39956;SDS011;48483;44.640;7.494;2023-04-24T10:11:29;13.60;;;12.20;;
39956;SDS011;48483;44.640;7.494;2023-04-24T10:13:56;17.38;;;13.23;;
39956;SDS011;48483;44.640;7.494;2023-04-24T10:16:23;14.15;;;12.73;;
39956;SDS011;48483;44.640;7.494;2023-04-24T10:18:50;14.88;;;13.27;;
39956;SDS011;48483;44.640;7.494;2023-04-24T10:21:17;14.48;;;12.93;;
39956;SDS011;48483;44.640;7.494;2023-04-24T10:23:44;18.17;;;12.60;;
39956;SDS011;48483;44.640;7.494;2023-04-24T10:26:13;14.73;;;13.18;;
39956;SDS011;48483;44.640;7.494;2023-04-24T10:28:44;12.70;;;11.32;;
39956;SDS011;48483;44.640;7.494;2023-04-24T10:31:11;13.40;;;12.05;;
39956;SDS011;48483;44.640;7.494;2023-04-24T10:33:38;15.65;;;13.05;;
39956;SDS011;48483;44.640;7.494;2023-04-24T10:36:07;16.58;;;13.30;;
39956;SDS011;48483;44.640;7.494;2023-04-24T10:38:35;14.38;;;9.93;;
39956;SDS011;48483;44.640;7.494;2023-04-24T10:41:08;11.30;;;10.20;;
39956;SDS011;48483;44.640;7.494;2023-04-24T10:43:36;14.40;;;11.95;;
39956;SDS011;48483;44.640;7.494;2023-04-24T10:46:06;13.60;;;11.50;;
39956;SDS011;48483;44.640;7.494;2023-04-24T10:48:33;13.35;;;10.82;;
39956;SDS011;48483;44.640;7.494;2023-04-24T10:50:59;13.00;;;9.65;;
39956;SDS011;48483;44.640;7.494;2023-04-24T10:53:27;11.02;;;8.57;;
39956;SDS011;48483;44.640;7.494;2023-04-24T10:55:57;10.88;;;8.88;;
39956;SDS011;48483;44.640;7.494;2023-04-24T10:58:26;9.48;;;7.97;;
39956;SDS011;48483;44.640;7.494;2023-04-24T11:01:04;7.75;;;6.10;;
39956;SDS011;48483;44.640;7.494;2023-04-24T11:03:31;8.50;;;7.00;;
39956;SDS011;48483;44.640;7.494;2023-04-24T11:06:01;7.55;;;6.75;;
39956;SDS011;48483;44.640;7.494;2023-04-24T11:08:29;5.95;;;5.25;;
39956;SDS011;48483;44.640;7.494;2023-04-24T11:10:58;6.18;;;5.25;;
39956;SDS011;48483;44.640;7.494;2023-04-24T11:13:27;6.78;;;4.60;;
39956;SDS011;48483;44.640;7.494;2023-04-24T11:16:26;6.20;;;5.38;;
39956;SDS011;48483;44.640;7.494;2023-04-24T11:19:01;7.90;;;5.93;;
39956;SDS011;48483;44.640;7.494;2023-04-24T11:24:21;5.57;;;3.22;;
39956;SDS011;48483;44.640;7.494;2023-04-24T11:26:55;5.53;;;3.15;;
39956;SDS011;48483;44.640;7.494;2023-04-24T11:29:37;3.80;;;2.40;;
39956;SDS011;48483;44.640;7.494;2023-04-24T11:32:15;4.40;;;2.83;;
39956;SDS011;48483;44.640;7.494;2023-04-24T11:34:45;4.63;;;2.10;;
39956;SDS011;48483;44.640;7.494;2023-04-24T11:37:13;2.92;;;1.17;;
39956;SDS011;48483;44.640;7.494;2023-04-24T11:39:40;5.03;;;1.95;;
39956;SDS011;48483;44.640;7.494;2023-04-24T11:42:06;2.80;;;1.73;;
39956;SDS011;48483;44.640;7.494;2023-04-24T11:44:34;2.97;;;2.10;;
39956;SDS011;48483;44.640;7.494;2023-04-24T11:47:03;2.75;;;1.83;;
39956;SDS011;48483;44.640;7.494;2023-04-24T11:49:31;2.55;;;1.40;;
39956;SDS011;48483;44.640;7.494;2023-04-24T11:51:59;2.83;;;1.50;;
39956;SDS011;48483;44.640;7.494;2023-04-24T11:54:26;1.55;;;1.25;;
39956;SDS011;48483;44.640;7.494;2023-04-24T11:56:53;3.72;;;1.60;;
39956;SDS011;48483;44.640;7.494;2023-04-24T11:59:19;2.75;;;1.38;;
39956;SDS011;48483;44.640;7.494;2023-04-24T12:01:46;1.70;;;1.05;;
39956;SDS011;48483;44.640;7.494;2023-04-24T12:04:13;3.17;;;1.38;;
39956;SDS011;48483;44.640;7.494;2023-04-24T12:06:45;1.55;;;1.00;;
39956;SDS011;48483;44.640;7.494;2023-04-24T12:09:25;3.88;;;1.55;;
39956;SDS011;48483;44.640;7.494;2023-04-24T12:11:52;3.60;;;1.45;;
39956;SDS011;48483;44.640;7.494;2023-04-24T12:14:20;2.80;;;1.00;;
39956;SDS011;48483;44.640;7.494;2023-04-24T12:16:47;2.38;;;1.30;;
39956;SDS011;48483;44.640;7.494;2023-04-24T12:19:17;2.40;;;1.17;;
39956;SDS011;48483;44.640;7.494;2023-04-24T12:21:46;2.50;;;1.55;;
39956;SDS011;48483;44.640;7.494;2023-04-24T12:26:51;2.72;;;1.67;;
39956;SDS011;48483;44.640;7.494;2023-04-24T12:29:19;2.08;;;1.25;;
39956;SDS011;48483;44.640;7.494;2023-04-24T12:31:46;3.03;;;1.23;;
39956;SDS011;48483;44.640;7.494;2023-04-24T12:34:17;2.13;;;1.60;;
39956;SDS011;48483;44.640;7.494;2023-04-24T12:36:45;2.75;;;2.08;;
39956;SDS011;48483;44.640;7.494;2023-04-24T12:39:14;2.92;;;1.80;;
39956;SDS011;48483;44.640;7.494;2023-04-24T12:41:49;2.95;;;1.60;;
39956;SDS011;48483;44.640;7.494;2023-04-24T12:44:17;3.92;;;1.55;;
39956;SDS011;48483;44.640;7.494;2023-04-24T12:46:44;2.33;;;1.70;;
39956;SDS011;48483;44.640;7.494;2023-04-24T12:49:11;1.63;;;1.42;;
39956;SDS011;48483;44.640;7.494;2023-04-24T12:51:37;3.80;;;1.50;;
39956;SDS011;48483;44.640;7.494;2023-04-24T12:54:05;2.00;;;0.80;;
39956;SDS011;48483;44.640;7.494;2023-04-24T12:56:33;2.05;;;0.80;;
39956;SDS011;48483;44.640;7.494;2023-04-24T12:58:59;1.33;;;0.70;;
39956;SDS011;48483;44.640;7.494;2023-04-24T13:01:26;3.00;;;1.25;;
39956;SDS011;48483;44.640;7.494;2023-04-24T13:03:52;1.17;;;0.70;;
39956;SDS011;48483;44.640;7.494;2023-04-24T13:06:19;2.85;;;1.02;;
39956;SDS011;48483;44.640;7.494;2023-04-24T13:08:47;1.60;;;0.60;;
39956;SDS011;48483;44.640;7.494;2023-04-24T13:11:15;1.85;;;0.80;;
39956;SDS011;48483;44.640;7.494;2023-04-24T13:13:42;2.28;;;0.95;;
39956;SDS011;48483;44.640;7.494;2023-04-24T13:16:08;1.30;;;0.80;;
39956;SDS011;48483;44.640;7.494;2023-04-24T13:18:35;1.67;;;1.02;;
39956;SDS011;48483;44.640;7.494;2023-04-24T13:21:02;2.17;;;0.80;;
39956;SDS011;48483;44.640;7.494;2023-04-24T13:23:28;1.58;;;0.80;;
39956;SDS011;48483;44.640;7.494;2023-04-24T13:25:55;1.23;;;0.65;;
39956;SDS011;48483;44.640;7.494;2023-04-24T13:28:25;1.38;;;1.00;;
39956;SDS011;48483;44.640;7.494;2023-04-24T13:30:52;1.27;;;0.77;;
39956;SDS011;48483;44.640;7.494;2023-04-24T13:33:18;1.65;;;0.60;;
39956;SDS011;48483;44.640;7.494;2023-04-24T13:35:45;1.95;;;0.80;;
39956;SDS011;48483;44.640;7.494;2023-04-24T13:38:11;1.67;;;0.85;;
39956;SDS011;48483;44.640;7.494;2023-04-24T13:40:38;1.20;;;0.68;;
39956;SDS011;48483;44.640;7.494;2023-04-24T13:43:05;2.67;;;1.25;;
39956;SDS011;48483;44.640;7.494;2023-04-24T13:45:33;3.03;;;0.70;;
39956;SDS011;48483;44.640;7.494;2023-04-24T13:47:59;0.93;;;0.80;;
39956;SDS011;48483;44.640;7.494;2023-04-24T13:50:27;2.25;;;0.80;;
39956;SDS011;48483;44.640;7.494;2023-04-24T13:52:53;1.80;;;0.82;;
39956;SDS011;48483;44.640;7.494;2023-04-24T13:55:22;1.58;;;1.05;;
39956;SDS011;48483;44.640;7.494;2023-04-24T13:57:49;4.22;;;0.75;;
39956;SDS011;48483;44.640;7.494;2023-04-24T14:00:15;1.55;;;0.73;;
39956;SDS011;48483;44.640;7.494;2023-04-24T14:02:45;0.85;;;0.50;;
39956;SDS011;48483;44.640;7.494;2023-04-24T14:05:12;2.30;;;0.60;;
39956;SDS011;48483;44.640;7.494;2023-04-24T14:07:39;0.40;;;0.32;;
39956;SDS011;48483;44.640;7.494;2023-04-24T14:10:06;0.25;;;0.20;;
39956;SDS011;48483;44.640;7.494;2023-04-24T14:12:33;0.60;;;0.38;;
39956;SDS011;48483;44.640;7.494;2023-04-24T14:15:00;3.25;;;0.40;;
39956;SDS011;48483;44.640;7.494;2023-04-24T14:17:27;0.20;;;0.20;;
39956;SDS011;48483;44.640;7.494;2023-04-24T14:19:55;1.00;;;0.47;;
39956;SDS011;48483;44.640;7.494;2023-04-24T14:22:22;1.02;;;0.38;;
39956;SDS011;48483;44.640;7.494;2023-04-24T14:24:49;2.58;;;1.10;;
39956;SDS011;48483;44.640;7.494;2023-04-24T14:27:15;2.05;;;0.30;;
39956;SDS011;48483;44.640;7.494;2023-04-24T14:29:42;1.42;;;0.40;;
39956;SDS011;48483;44.640;7.494;2023-04-24T14:32:08;0.63;;;0.25;;
39956;SDS011;48483;44.640;7.494;2023-04-24T14:34:35;0.93;;;0.35;;
39956;SDS011;48483;44.640;7.494;2023-04-24T14:37:02;0.80;;;0.30;;
39956;SDS011;48483;44.640;7.494;2023-04-24T14:39:29;0.50;;;0.40;;
39956;SDS011;48483;44.640;7.494;2023-04-24T14:41:56;1.63;;;0.50;;
39956;SDS011;48483;44.640;7.494;2023-04-24T14:44:22;1.42;;;0.40;;
39956;SDS011;48483;44.640;7.494;2023-04-24T14:46:49;1.45;;;0.47;;